WetterOnline ( http://www.wetteronline.de )

Wetter aktuell Neubiberg

Aktuelles Wetter: München/Stadt (535m)

6-stündlich | Neueste Meldungen
Ortszeit Temperatur Wetter
Mo, 22.10. 20:00 10.5° C bedeckt
Mo, 22.10. 14:00 11.7° C wolkenlos
Mo, 22.10. 8:00 2.1° C leicht bewölkt
Mo, 22.10. 2:00 3.9° C wolkenlos
So, 21.10. 20:00 9.3° C wolkenlos
So, 21.10. 14:00 13.5° C leicht bewölkt
So, 21.10. 8:00 7.5° C bedeckt
So, 21.10. 2:00 8.8° C bewölkt
Ortszeit Temperatur Wetter
Mo, 22.10. 21:30 9.5° C bewölkt
Mo, 22.10. 21:20 9.5° C bewölkt
Mo, 22.10. 21:10 9.4° C bewölkt
Mo, 22.10. 21:00 9.4° C wolkig
Mo, 22.10. 20:50 9.4° C wolkig
Mo, 22.10. 20:40 9.2° C wolkig
Mo, 22.10. 20:30 9.7° C wolkig
Mo, 22.10. 20:00 10.5° C bedeckt
Mo, 22.10. 19:30 9.3° C wolkig
Mo, 22.10. 19:00 9.3° C wolkenlos
Mo, 22.10. 18:30 10.2° C wolkenlos
Ortszeit Relative Feuchte Sichtweite
Mo, 22.10. 20:00 65% 29 km
Mo, 22.10. 14:00 53% 45 km
Mo, 22.10. 8:00 90% 35 km
Mo, 22.10. 2:00 84% 45 km
So, 21.10. 20:00 60% 50 km
So, 21.10. 14:00 36% 55 km
So, 21.10. 8:00 87% 11 km
So, 21.10. 2:00 87% 8 km
Ortszeit Relative Feuchte Sichtweite
Mo, 22.10. 21:30 71% 28 km
Mo, 22.10. 21:20 71% -
Mo, 22.10. 21:10 71% -
Mo, 22.10. 21:00 71% 28 km
Mo, 22.10. 20:50 71% -
Mo, 22.10. 20:40 72% -
Mo, 22.10. 20:30 69% 30 km
Mo, 22.10. 20:00 65% 29 km
Mo, 22.10. 19:30 72% 28 km
Mo, 22.10. 19:00 69% 35 km
Mo, 22.10. 18:30 65% 30 km
Ortszeit Niederschlagsmenge Niederschlagsart
Mo, 22.10. 20:00 0.0 l/m2 in 12 Std. -
Mo, 22.10. 14:00 0.0 l/m2 in 6 Std. -
Mo, 22.10. 8:00 0.0 l/m2 in 12 Std. -
Mo, 22.10. 2:00 0.0 l/m2 in 6 Std. -
So, 21.10. 20:00 0.0 l/m2 in 12 Std. -
So, 21.10. 14:00 0.0 l/m2 in 6 Std. -
So, 21.10. 8:00 0.0 l/m2 in 12 Std. -
So, 21.10. 2:00 0.0 l/m2 in 6 Std. -
Ortszeit Niederschlagsmenge Niederschlagsart
Mo, 22.10. 21:30 0.0 l/m2 in 1 Std. -
Mo, 22.10. 21:20 keine Meldung -
Mo, 22.10. 21:10 keine Meldung -
Mo, 22.10. 21:00 0.0 l/m2 in 1 Std. -
Mo, 22.10. 20:50 keine Meldung -
Mo, 22.10. 20:40 keine Meldung -
Mo, 22.10. 20:30 0.0 l/m2 in 1 Std. -
Mo, 22.10. 20:00 0.0 l/m2 in 1 Std. -
Mo, 22.10. 19:30 0.0 l/m2 in 1 Std. -
Mo, 22.10. 19:00 0.0 l/m2 in 1 Std. -
Mo, 22.10. 18:30 0.0 l/m2 in 1 Std. -
Ortszeit Stärke Spitze Richtung
km/h Bft. km/h Grad Sektor
Mo, 22.10. 20:00 6 1 20 250° W
Mo, 22.10. 14:00 13 3 24 40° NO
Mo, 22.10. 8:00 4 1 11 90° O
Mo, 22.10. 2:00 6 1 26 80° O
So, 21.10. 20:00 9 2 43 90° O
So, 21.10. 14:00 15 3 28 90° O
So, 21.10. 8:00 4 1 11 330° NW
So, 21.10. 2:00 7 2 14 260° W
Ortszeit Stärke Spitze Richtung
km/h Bft. km/h Grad Sektor
Mo, 22.10. 21:30 7 2 11 310° NW
Mo, 22.10. 21:20 7 2 - 310° NW
Mo, 22.10. 21:10 9 2 - 300° NW
Mo, 22.10. 21:00 7 2 11 270° W
Mo, 22.10. 20:50 7 2 - 270° W
Mo, 22.10. 20:40 7 2 - 280° W
Mo, 22.10. 20:30 7 2 7 270° W
Mo, 22.10. 20:00 6 1 7 250° W
Mo, 22.10. 19:30 6 1 6 270° W
Mo, 22.10. 19:00 4 1 11 330° NW
Mo, 22.10. 18:30 6 1 9 330° NW
Ortszeit Untergrenze Bedeckung Gattung
total tief tief mittel hoch
Mo, 22.10. 20:00 2100 m 8/8 8/8 - - -
Mo, 22.10. 14:00 - 0/8 0/8 - - -
Mo, 22.10. 8:00 10500 m 4/8 0/8 - - -
Mo, 22.10. 2:00 - 0/8 0/8 - - -
So, 21.10. 20:00 - 0/8 0/8 - - -
So, 21.10. 14:00 1500 m 3/8 3/8 - - -
So, 21.10. 8:00 2700 m 8/8 8/8 - - -
So, 21.10. 2:00 1050 m 8/8 6/8 - - -
Ortszeit Bedeckungsgrad in Achtel und Wolkenuntergrenze
Mo, 22.10. 21:30 7(2100m) 7(2700m) 8(4200m)
Mo, 22.10. 21:20 7(2100m) 7(2700m) 8(4200m)
Mo, 22.10. 21:10 5(2100m) 6(2400m) 8(4200m)
Mo, 22.10. 21:00 1(2700m) 4(3600m) 8(4200m)
Mo, 22.10. 20:50 1(2700m) 4(3600m) 8(4200m)
Mo, 22.10. 20:40 2(2700m) 5(3600m) 8(4200m)
Mo, 22.10. 20:30 3(2100m) 3(2700m) 7(3900m)
Mo, 22.10. 20:00 7(2100m) 8(2700m) 8(2700m)
Mo, 22.10. 19:30 5(2700m)
Mo, 22.10. 19:00 keine Wolken
Mo, 22.10. 18:30 keine Wolken
Ortszeit Luftdruck NN (hPa) Tendenz (hPa in 3 Std.)
Mo, 22.10. 20:00 1029 + 1,1
Mo, 22.10. 14:00 1027 - 0,2
Mo, 22.10. 8:00 1028 + 0,3
Mo, 22.10. 2:00 1028 - 0,4
So, 21.10. 20:00 1028 - 0,1
So, 21.10. 14:00 1027 - 1,1
So, 21.10. 8:00 1029 + 0,1
So, 21.10. 2:00 1029 - 0,6
Ortszeit Luftdruck NN (hPa) Tendenz (hPa in 3 Std.)
Mo, 22.10. 21:30 1030 + 1,6
Mo, 22.10. 21:20 1030 keine Meldung
Mo, 22.10. 21:10 1030 keine Meldung
Mo, 22.10. 21:00 1030 + 1,3
Mo, 22.10. 20:50 1030 keine Meldung
Mo, 22.10. 20:40 1030 keine Meldung
Mo, 22.10. 20:30 1030 + 1,3
Mo, 22.10. 20:00 1029 + 1,1
Mo, 22.10. 19:30 1029 + 1,2
Mo, 22.10. 19:00 1029 + 1,0
Mo, 22.10. 18:30 1029 + 0,9
Ortszeit Schneehöhe (cm)
Mo, 22.10. 20:00 0
Mo, 22.10. 14:00 0
Mo, 22.10. 8:00 0
Mo, 22.10. 2:00 0
So, 21.10. 20:00 0
So, 21.10. 14:00 0
So, 21.10. 8:00 0
So, 21.10. 2:00 0
Ortszeit Schneehöhe (cm)
Mo, 22.10. 21:30 0
Mo, 22.10. 21:20 0
Mo, 22.10. 21:10 0
Mo, 22.10. 21:00 0
Mo, 22.10. 20:50 0
Mo, 22.10. 20:40 0
Mo, 22.10. 20:30 0
Mo, 22.10. 20:00 0
Mo, 22.10. 19:30 0
Mo, 22.10. 19:00 0
Mo, 22.10. 18:30 0
Link zu dieser Seite / Seite empfehlen

Das Wetter in ...